sensor_id;sensor_type;location;lat;lon;timestamp;P1;durP1;ratioP1;P2;durP2;ratioP2
16922;SDS011;8578;50.938;13.556;2022-07-23T00:00:29;5.27;;;3.60;;
16922;SDS011;8578;50.938;13.556;2022-07-23T00:03:05;5.67;;;3.20;;
16922;SDS011;8578;50.938;13.556;2022-07-23T00:05:33;3.73;;;3.17;;
16922;SDS011;8578;50.938;13.556;2022-07-23T00:08:02;3.67;;;3.10;;
16922;SDS011;8578;50.938;13.556;2022-07-23T00:10:31;3.63;;;3.00;;
16922;SDS011;8578;50.938;13.556;2022-07-23T00:12:58;3.90;;;3.10;;
16922;SDS011;8578;50.938;13.556;2022-07-23T00:15:26;3.47;;;2.83;;
16922;SDS011;8578;50.938;13.556;2022-07-23T00:17:53;3.77;;;3.13;;
16922;SDS011;8578;50.938;13.556;2022-07-23T00:20:22;5.27;;;3.93;;
16922;SDS011;8578;50.938;13.556;2022-07-23T00:22:50;9.67;;;3.40;;
16922;SDS011;8578;50.938;13.556;2022-07-23T00:25:18;4.97;;;2.90;;
16922;SDS011;8578;50.938;13.556;2022-07-23T00:27:55;7.63;;;3.33;;
16922;SDS011;8578;50.938;13.556;2022-07-23T00:30:23;3.80;;;3.40;;
16922;SDS011;8578;50.938;13.556;2022-07-23T00:32:52;5.10;;;3.47;;
16922;SDS011;8578;50.938;13.556;2022-07-23T00:35:23;3.67;;;3.37;;
16922;SDS011;8578;50.938;13.556;2022-07-23T00:37:51;4.57;;;3.50;;
16922;SDS011;8578;50.938;13.556;2022-07-23T00:40:19;3.30;;;3.00;;
16922;SDS011;8578;50.938;13.556;2022-07-23T00:42:46;3.53;;;3.23;;
16922;SDS011;8578;50.938;13.556;2022-07-23T00:45:14;4.20;;;3.80;;
16922;SDS011;8578;50.938;13.556;2022-07-23T00:47:41;4.00;;;3.60;;
16922;SDS011;8578;50.938;13.556;2022-07-23T00:50:09;6.73;;;3.50;;
16922;SDS011;8578;50.938;13.556;2022-07-23T00:52:38;3.30;;;3.00;;
16922;SDS011;8578;50.938;13.556;2022-07-23T00:55:07;6.17;;;3.10;;
16922;SDS011;8578;50.938;13.556;2022-07-23T00:57:35;3.73;;;3.30;;
16922;SDS011;8578;50.938;13.556;2022-07-23T01:00:03;4.30;;;3.27;;
16922;SDS011;8578;50.938;13.556;2022-07-23T01:02:31;4.80;;;3.17;;
16922;SDS011;8578;50.938;13.556;2022-07-23T01:04:58;5.23;;;3.47;;
16922;SDS011;8578;50.938;13.556;2022-07-23T01:07:26;5.83;;;3.53;;
16922;SDS011;8578;50.938;13.556;2022-07-23T01:09:55;5.37;;;3.30;;
16922;SDS011;8578;50.938;13.556;2022-07-23T01:12:23;4.33;;;3.30;;
16922;SDS011;8578;50.938;13.556;2022-07-23T01:14:53;4.73;;;3.43;;
16922;SDS011;8578;50.938;13.556;2022-07-23T01:17:21;4.30;;;3.57;;
16922;SDS011;8578;50.938;13.556;2022-07-23T01:19:48;4.17;;;3.47;;
16922;SDS011;8578;50.938;13.556;2022-07-23T01:22:17;4.03;;;3.20;;
16922;SDS011;8578;50.938;13.556;2022-07-23T01:24:46;3.57;;;3.23;;
16922;SDS011;8578;50.938;13.556;2022-07-23T01:27:20;3.50;;;3.20;;
16922;SDS011;8578;50.938;13.556;2022-07-23T01:29:51;3.87;;;3.57;;
16922;SDS011;8578;50.938;13.556;2022-07-23T01:32:20;4.27;;;3.67;;
16922;SDS011;8578;50.938;13.556;2022-07-23T01:34:47;4.33;;;3.50;;
16922;SDS011;8578;50.938;13.556;2022-07-23T01:37:15;3.80;;;3.40;;
16922;SDS011;8578;50.938;13.556;2022-07-23T01:39:43;3.70;;;3.30;;
16922;SDS011;8578;50.938;13.556;2022-07-23T01:42:13;3.63;;;3.30;;
16922;SDS011;8578;50.938;13.556;2022-07-23T01:44:41;5.03;;;3.37;;
16922;SDS011;8578;50.938;13.556;2022-07-23T01:47:15;5.10;;;3.40;;
16922;SDS011;8578;50.938;13.556;2022-07-23T01:49:44;4.13;;;3.37;;
16922;SDS011;8578;50.938;13.556;2022-07-23T01:52:32;4.17;;;3.77;;
16922;SDS011;8578;50.938;13.556;2022-07-23T01:54:59;4.63;;;3.47;;
16922;SDS011;8578;50.938;13.556;2022-07-23T01:57:28;4.00;;;3.60;;
16922;SDS011;8578;50.938;13.556;2022-07-23T01:59:56;4.70;;;3.27;;
16922;SDS011;8578;50.938;13.556;2022-07-23T02:02:24;4.23;;;3.83;;
16922;SDS011;8578;50.938;13.556;2022-07-23T02:04:53;3.73;;;3.40;;
16922;SDS011;8578;50.938;13.556;2022-07-23T02:07:24;4.53;;;3.63;;
16922;SDS011;8578;50.938;13.556;2022-07-23T02:09:52;4.13;;;3.60;;
16922;SDS011;8578;50.938;13.556;2022-07-23T02:12:19;5.73;;;3.77;;
16922;SDS011;8578;50.938;13.556;2022-07-23T02:14:48;4.77;;;4.00;;
16922;SDS011;8578;50.938;13.556;2022-07-23T02:17:15;5.53;;;3.37;;
16922;SDS011;8578;50.938;13.556;2022-07-23T02:19:43;5.93;;;3.80;;
16922;SDS011;8578;50.938;13.556;2022-07-23T02:22:10;4.70;;;3.50;;
16922;SDS011;8578;50.938;13.556;2022-07-23T02:24:37;4.33;;;3.80;;
16922;SDS011;8578;50.938;13.556;2022-07-23T02:27:05;5.73;;;3.70;;
16922;SDS011;8578;50.938;13.556;2022-07-23T02:29:33;4.07;;;3.53;;
16922;SDS011;8578;50.938;13.556;2022-07-23T02:32:02;4.13;;;3.73;;
16922;SDS011;8578;50.938;13.556;2022-07-23T02:34:32;3.33;;;3.03;;
16922;SDS011;8578;50.938;13.556;2022-07-23T02:37:00;4.90;;;3.67;;
16922;SDS011;8578;50.938;13.556;2022-07-23T02:39:29;5.07;;;3.73;;
16922;SDS011;8578;50.938;13.556;2022-07-23T02:41:56;5.33;;;3.17;;
16922;SDS011;8578;50.938;13.556;2022-07-23T02:44:24;3.53;;;3.10;;
16922;SDS011;8578;50.938;13.556;2022-07-23T02:46:52;4.17;;;3.17;;
16922;SDS011;8578;50.938;13.556;2022-07-23T02:49:21;5.23;;;3.20;;
16922;SDS011;8578;50.938;13.556;2022-07-23T02:51:50;4.97;;;3.20;;
16922;SDS011;8578;50.938;13.556;2022-07-23T02:54:17;4.43;;;3.73;;
16922;SDS011;8578;50.938;13.556;2022-07-23T02:56:45;3.67;;;3.33;;
16922;SDS011;8578;50.938;13.556;2022-07-23T02:59:13;4.37;;;3.43;;
16922;SDS011;8578;50.938;13.556;2022-07-23T03:01:40;3.93;;;3.53;;
16922;SDS011;8578;50.938;13.556;2022-07-23T03:04:08;5.20;;;3.30;;
16922;SDS011;8578;50.938;13.556;2022-07-23T03:06:36;4.07;;;3.37;;
16922;SDS011;8578;50.938;13.556;2022-07-23T03:09:04;3.93;;;3.30;;
16922;SDS011;8578;50.938;13.556;2022-07-23T03:11:32;4.17;;;3.77;;
16922;SDS011;8578;50.938;13.556;2022-07-23T03:13:59;4.43;;;3.30;;
16922;SDS011;8578;50.938;13.556;2022-07-23T03:16:27;3.90;;;3.50;;
16922;SDS011;8578;50.938;13.556;2022-07-23T03:18:55;3.57;;;3.20;;
16922;SDS011;8578;50.938;13.556;2022-07-23T03:21:23;3.83;;;3.43;;
16922;SDS011;8578;50.938;13.556;2022-07-23T03:23:52;3.87;;;3.47;;
16922;SDS011;8578;50.938;13.556;2022-07-23T03:26:20;4.87;;;3.77;;
16922;SDS011;8578;50.938;13.556;2022-07-23T03:28:51;4.87;;;3.70;;
16922;SDS011;8578;50.938;13.556;2022-07-23T03:31:19;4.20;;;3.80;;
16922;SDS011;8578;50.938;13.556;2022-07-23T03:33:47;3.77;;;3.10;;
16922;SDS011;8578;50.938;13.556;2022-07-23T03:36:14;3.77;;;3.43;;
16922;SDS011;8578;50.938;13.556;2022-07-23T03:38:44;5.23;;;3.50;;
16922;SDS011;8578;50.938;13.556;2022-07-23T03:41:13;4.00;;;3.60;;
16922;SDS011;8578;50.938;13.556;2022-07-23T03:43:40;3.83;;;3.53;;
16922;SDS011;8578;50.938;13.556;2022-07-23T03:46:10;5.83;;;4.27;;
16922;SDS011;8578;50.938;13.556;2022-07-23T03:48:37;4.27;;;3.87;;
16922;SDS011;8578;50.938;13.556;2022-07-23T03:51:05;5.10;;;3.53;;
16922;SDS011;8578;50.938;13.556;2022-07-23T03:53:32;5.37;;;3.87;;
16922;SDS011;8578;50.938;13.556;2022-07-23T03:56:00;5.03;;;3.83;;
16922;SDS011;8578;50.938;13.556;2022-07-23T03:58:30;4.13;;;3.73;;
16922;SDS011;8578;50.938;13.556;2022-07-23T04:00:57;5.10;;;3.50;;
16922;SDS011;8578;50.938;13.556;2022-07-23T04:03:25;3.97;;;3.57;;
16922;SDS011;8578;50.938;13.556;2022-07-23T04:05:52;5.20;;;3.80;;
16922;SDS011;8578;50.938;13.556;2022-07-23T04:08:20;5.70;;;3.47;;
16922;SDS011;8578;50.938;13.556;2022-07-23T04:10:50;4.20;;;3.53;;
16922;SDS011;8578;50.938;13.556;2022-07-23T04:13:18;5.47;;;3.40;;
16922;SDS011;8578;50.938;13.556;2022-07-23T04:15:47;4.33;;;3.90;;
16922;SDS011;8578;50.938;13.556;2022-07-23T04:18:16;3.70;;;3.40;;
16922;SDS011;8578;50.938;13.556;2022-07-23T04:20:52;4.23;;;3.77;;
16922;SDS011;8578;50.938;13.556;2022-07-23T04:23:20;4.93;;;3.67;;
16922;SDS011;8578;50.938;13.556;2022-07-23T04:25:48;5.10;;;3.80;;
16922;SDS011;8578;50.938;13.556;2022-07-23T04:28:16;4.07;;;3.67;;
16922;SDS011;8578;50.938;13.556;2022-07-23T04:30:44;4.83;;;3.97;;
16922;SDS011;8578;50.938;13.556;2022-07-23T04:33:15;5.07;;;4.17;;
16922;SDS011;8578;50.938;13.556;2022-07-23T04:35:44;5.57;;;4.53;;
16922;SDS011;8578;50.938;13.556;2022-07-23T04:38:17;5.07;;;4.17;;
16922;SDS011;8578;50.938;13.556;2022-07-23T04:40:47;6.17;;;3.93;;
16922;SDS011;8578;50.938;13.556;2022-07-23T04:43:15;6.63;;;4.07;;
16922;SDS011;8578;50.938;13.556;2022-07-23T04:45:48;3.90;;;3.50;;
16922;SDS011;8578;50.938;13.556;2022-07-23T04:48:17;3.90;;;3.50;;
16922;SDS011;8578;50.938;13.556;2022-07-23T04:50:49;7.67;;;4.20;;
16922;SDS011;8578;50.938;13.556;2022-07-23T04:53:21;4.50;;;3.83;;
16922;SDS011;8578;50.938;13.556;2022-07-23T04:55:51;4.33;;;3.93;;
16922;SDS011;8578;50.938;13.556;2022-07-23T04:58:19;4.83;;;4.30;;
16922;SDS011;8578;50.938;13.556;2022-07-23T05:00:46;4.50;;;4.10;;
16922;SDS011;8578;50.938;13.556;2022-07-23T05:03:14;4.67;;;3.97;;
16922;SDS011;8578;50.938;13.556;2022-07-23T05:05:45;4.30;;;3.90;;
16922;SDS011;8578;50.938;13.556;2022-07-23T05:08:16;4.97;;;4.00;;
16922;SDS011;8578;50.938;13.556;2022-07-23T05:10:48;4.37;;;3.97;;
16922;SDS011;8578;50.938;13.556;2022-07-23T05:13:17;6.03;;;3.60;;
16922;SDS011;8578;50.938;13.556;2022-07-23T05:15:45;7.77;;;4.23;;
16922;SDS011;8578;50.938;13.556;2022-07-23T05:18:13;4.73;;;4.23;;
16922;SDS011;8578;50.938;13.556;2022-07-23T05:20:41;4.10;;;3.70;;
16922;SDS011;8578;50.938;13.556;2022-07-23T05:23:12;4.43;;;3.70;;
16922;SDS011;8578;50.938;13.556;2022-07-23T05:25:40;3.93;;;3.53;;
16922;SDS011;8578;50.938;13.556;2022-07-23T05:28:08;4.20;;;3.80;;
16922;SDS011;8578;50.938;13.556;2022-07-23T05:30:37;5.67;;;4.07;;
16922;SDS011;8578;50.938;13.556;2022-07-23T05:33:07;4.90;;;3.93;;
16922;SDS011;8578;50.938;13.556;2022-07-23T05:35:35;6.60;;;4.00;;
16922;SDS011;8578;50.938;13.556;2022-07-23T05:38:23;4.40;;;3.90;;
16922;SDS011;8578;50.938;13.556;2022-07-23T05:40:51;5.67;;;3.53;;
16922;SDS011;8578;50.938;13.556;2022-07-23T05:43:19;9.50;;;3.90;;
16922;SDS011;8578;50.938;13.556;2022-07-23T05:45:47;6.20;;;4.53;;
16922;SDS011;8578;50.938;13.556;2022-07-23T05:48:15;5.20;;;4.10;;
16922;SDS011;8578;50.938;13.556;2022-07-23T05:50:56;5.70;;;4.80;;
16922;SDS011;8578;50.938;13.556;2022-07-23T05:53:31;5.90;;;4.73;;
16922;SDS011;8578;50.938;13.556;2022-07-23T05:56:05;5.17;;;4.30;;
16922;SDS011;8578;50.938;13.556;2022-07-23T05:58:34;7.73;;;4.70;;
16922;SDS011;8578;50.938;13.556;2022-07-23T06:01:02;7.13;;;4.80;;
16922;SDS011;8578;50.938;13.556;2022-07-23T06:03:38;5.77;;;4.73;;
16922;SDS011;8578;50.938;13.556;2022-07-23T06:06:06;5.63;;;4.73;;
16922;SDS011;8578;50.938;13.556;2022-07-23T06:08:36;10.10;;;5.53;;
16922;SDS011;8578;50.938;13.556;2022-07-23T06:11:06;7.63;;;5.40;;
16922;SDS011;8578;50.938;13.556;2022-07-23T06:13:34;7.53;;;5.70;;
16922;SDS011;8578;50.938;13.556;2022-07-23T06:16:02;8.47;;;5.67;;
16922;SDS011;8578;50.938;13.556;2022-07-23T06:18:29;7.10;;;5.77;;
16922;SDS011;8578;50.938;13.556;2022-07-23T06:20:57;9.80;;;5.47;;
16922;SDS011;8578;50.938;13.556;2022-07-23T06:23:26;7.67;;;5.70;;
16922;SDS011;8578;50.938;13.556;2022-07-23T06:25:55;7.23;;;5.77;;
16922;SDS011;8578;50.938;13.556;2022-07-23T06:28:22;8.53;;;5.33;;
16922;SDS011;8578;50.938;13.556;2022-07-23T06:30:50;11.17;;;6.13;;
16922;SDS011;8578;50.938;13.556;2022-07-23T06:33:18;7.87;;;5.80;;
16922;SDS011;8578;50.938;13.556;2022-07-23T06:35:46;9.00;;;6.50;;
16922;SDS011;8578;50.938;13.556;2022-07-23T06:38:14;8.77;;;6.47;;
16922;SDS011;8578;50.938;13.556;2022-07-23T06:40:42;9.50;;;6.83;;
16922;SDS011;8578;50.938;13.556;2022-07-23T06:43:12;9.90;;;6.10;;
16922;SDS011;8578;50.938;13.556;2022-07-23T06:45:43;8.77;;;6.07;;
16922;SDS011;8578;50.938;13.556;2022-07-23T06:48:10;6.77;;;5.57;;
16922;SDS011;8578;50.938;13.556;2022-07-23T06:50:38;8.03;;;5.83;;
16922;SDS011;8578;50.938;13.556;2022-07-23T06:53:05;8.90;;;5.37;;
16922;SDS011;8578;50.938;13.556;2022-07-23T06:55:33;7.63;;;5.70;;
16922;SDS011;8578;50.938;13.556;2022-07-23T06:58:04;6.70;;;5.30;;
16922;SDS011;8578;50.938;13.556;2022-07-23T07:00:33;9.33;;;5.63;;
16922;SDS011;8578;50.938;13.556;2022-07-23T07:03:00;7.17;;;5.47;;
16922;SDS011;8578;50.938;13.556;2022-07-23T07:05:28;8.50;;;5.80;;
16922;SDS011;8578;50.938;13.556;2022-07-23T07:07:55;10.40;;;5.93;;
16922;SDS011;8578;50.938;13.556;2022-07-23T07:10:23;7.53;;;5.67;;
16922;SDS011;8578;50.938;13.556;2022-07-23T07:12:50;10.70;;;5.33;;
16922;SDS011;8578;50.938;13.556;2022-07-23T07:15:18;7.97;;;5.07;;
16922;SDS011;8578;50.938;13.556;2022-07-23T07:17:46;8.40;;;5.77;;
16922;SDS011;8578;50.938;13.556;2022-07-23T07:20:14;10.20;;;5.70;;
16922;SDS011;8578;50.938;13.556;2022-07-23T07:22:42;5.93;;;4.50;;
16922;SDS011;8578;50.938;13.556;2022-07-23T07:25:09;9.90;;;5.57;;
16922;SDS011;8578;50.938;13.556;2022-07-23T07:27:37;7.50;;;5.10;;
16922;SDS011;8578;50.938;13.556;2022-07-23T07:30:05;7.57;;;5.67;;
16922;SDS011;8578;50.938;13.556;2022-07-23T07:32:32;7.33;;;5.27;;
16922;SDS011;8578;50.938;13.556;2022-07-23T07:35:21;8.70;;;5.23;;
16922;SDS011;8578;50.938;13.556;2022-07-23T07:37:48;7.50;;;5.23;;
16922;SDS011;8578;50.938;13.556;2022-07-23T07:40:16;5.77;;;4.97;;
16922;SDS011;8578;50.938;13.556;2022-07-23T07:42:44;6.87;;;5.43;;
16922;SDS011;8578;50.938;13.556;2022-07-23T07:45:11;7.53;;;5.37;;
16922;SDS011;8578;50.938;13.556;2022-07-23T07:47:39;8.07;;;5.83;;
16922;SDS011;8578;50.938;13.556;2022-07-23T07:50:06;7.13;;;5.40;;
16922;SDS011;8578;50.938;13.556;2022-07-23T07:52:36;7.10;;;5.60;;
16922;SDS011;8578;50.938;13.556;2022-07-23T07:55:04;6.53;;;5.30;;
16922;SDS011;8578;50.938;13.556;2022-07-23T07:57:32;5.67;;;4.80;;
16922;SDS011;8578;50.938;13.556;2022-07-23T07:59:59;6.53;;;4.97;;
16922;SDS011;8578;50.938;13.556;2022-07-23T08:02:41;7.57;;;4.97;;
16922;SDS011;8578;50.938;13.556;2022-07-23T08:05:09;8.27;;;4.77;;
16922;SDS011;8578;50.938;13.556;2022-07-23T08:07:38;9.00;;;4.83;;
16922;SDS011;8578;50.938;13.556;2022-07-23T08:10:06;8.37;;;5.90;;
16922;SDS011;8578;50.938;13.556;2022-07-23T08:12:38;8.37;;;5.50;;
16922;SDS011;8578;50.938;13.556;2022-07-23T08:15:05;9.27;;;5.70;;
16922;SDS011;8578;50.938;13.556;2022-07-23T08:17:39;9.50;;;6.00;;
16922;SDS011;8578;50.938;13.556;2022-07-23T08:20:07;10.23;;;5.30;;
16922;SDS011;8578;50.938;13.556;2022-07-23T08:22:44;8.53;;;5.30;;
16922;SDS011;8578;50.938;13.556;2022-07-23T08:25:11;6.60;;;5.47;;
16922;SDS011;8578;50.938;13.556;2022-07-23T08:27:39;6.70;;;4.70;;
16922;SDS011;8578;50.938;13.556;2022-07-23T08:30:06;6.63;;;5.43;;
16922;SDS011;8578;50.938;13.556;2022-07-23T08:32:47;5.73;;;5.13;;
16922;SDS011;8578;50.938;13.556;2022-07-23T08:35:14;8.13;;;4.90;;
16922;SDS011;8578;50.938;13.556;2022-07-23T08:37:42;6.33;;;5.13;;
16922;SDS011;8578;50.938;13.556;2022-07-23T08:40:11;6.70;;;5.03;;
16922;SDS011;8578;50.938;13.556;2022-07-23T08:42:38;6.20;;;4.80;;
16922;SDS011;8578;50.938;13.556;2022-07-23T08:45:07;6.67;;;5.60;;
16922;SDS011;8578;50.938;13.556;2022-07-23T08:47:35;6.30;;;4.73;;
16922;SDS011;8578;50.938;13.556;2022-07-23T08:50:04;5.20;;;4.70;;
16922;SDS011;8578;50.938;13.556;2022-07-23T08:52:33;6.83;;;4.83;;
16922;SDS011;8578;50.938;13.556;2022-07-23T08:55:01;6.50;;;5.07;;
16922;SDS011;8578;50.938;13.556;2022-07-23T08:57:30;5.80;;;4.50;;
16922;SDS011;8578;50.938;13.556;2022-07-23T08:59:57;5.23;;;4.73;;
16922;SDS011;8578;50.938;13.556;2022-07-23T09:02:24;6.50;;;5.07;;
16922;SDS011;8578;50.938;13.556;2022-07-23T09:04:52;7.60;;;5.07;;
16922;SDS011;8578;50.938;13.556;2022-07-23T09:07:19;6.50;;;5.00;;
16922;SDS011;8578;50.938;13.556;2022-07-23T09:09:48;5.63;;;4.73;;
16922;SDS011;8578;50.938;13.556;2022-07-23T09:12:32;6.13;;;4.80;;
16922;SDS011;8578;50.938;13.556;2022-07-23T09:15:03;5.73;;;4.50;;
16922;SDS011;8578;50.938;13.556;2022-07-23T09:17:36;5.97;;;4.50;;
16922;SDS011;8578;50.938;13.556;2022-07-23T09:20:07;6.37;;;4.40;;
16922;SDS011;8578;50.938;13.556;2022-07-23T09:22:35;6.50;;;4.50;;
16922;SDS011;8578;50.938;13.556;2022-07-23T09:25:03;6.40;;;4.23;;
16922;SDS011;8578;50.938;13.556;2022-07-23T09:27:50;5.77;;;4.37;;
16922;SDS011;8578;50.938;13.556;2022-07-23T09:30:21;7.03;;;4.40;;
16922;SDS011;8578;50.938;13.556;2022-07-23T09:33:07;6.83;;;4.70;;
16922;SDS011;8578;50.938;13.556;2022-07-23T09:35:48;7.33;;;4.23;;
16922;SDS011;8578;50.938;13.556;2022-07-23T09:38:16;4.57;;;4.13;;
16922;SDS011;8578;50.938;13.556;2022-07-23T09:40:44;7.67;;;4.87;;
16922;SDS011;8578;50.938;13.556;2022-07-23T09:43:13;4.43;;;4.00;;
16922;SDS011;8578;50.938;13.556;2022-07-23T09:48:43;4.87;;;4.33;;
16922;SDS011;8578;50.938;13.556;2022-07-23T09:51:10;6.53;;;4.90;;
16922;SDS011;8578;50.938;13.556;2022-07-23T09:53:37;7.30;;;4.90;;
16922;SDS011;8578;50.938;13.556;2022-07-23T09:56:05;5.77;;;4.30;;
16922;SDS011;8578;50.938;13.556;2022-07-23T09:58:35;7.13;;;4.60;;
16922;SDS011;8578;50.938;13.556;2022-07-23T10:01:10;6.83;;;4.87;;
16922;SDS011;8578;50.938;13.556;2022-07-23T10:03:40;4.97;;;4.47;;
16922;SDS011;8578;50.938;13.556;2022-07-23T10:06:30;5.03;;;4.53;;
16922;SDS011;8578;50.938;13.556;2022-07-23T10:09:20;6.87;;;4.93;;
16922;SDS011;8578;50.938;13.556;2022-07-23T10:12:10;6.23;;;5.00;;
16922;SDS011;8578;50.938;13.556;2022-07-23T10:14:59;7.83;;;5.60;;
16922;SDS011;8578;50.938;13.556;2022-07-23T10:17:27;5.13;;;4.60;;
16922;SDS011;8578;50.938;13.556;2022-07-23T10:19:55;6.37;;;4.63;;
16922;SDS011;8578;50.938;13.556;2022-07-23T10:22:23;5.20;;;4.33;;
16922;SDS011;8578;50.938;13.556;2022-07-23T10:24:58;7.57;;;5.03;;
16922;SDS011;8578;50.938;13.556;2022-07-23T10:30:11;5.13;;;4.63;;
16922;SDS011;8578;50.938;13.556;2022-07-23T10:32:42;5.57;;;4.70;;
16922;SDS011;8578;50.938;13.556;2022-07-23T10:35:13;6.17;;;4.70;;
16922;SDS011;8578;50.938;13.556;2022-07-23T10:37:44;6.10;;;4.67;;
16922;SDS011;8578;50.938;13.556;2022-07-23T10:40:13;5.63;;;4.40;;
16922;SDS011;8578;50.938;13.556;2022-07-23T10:42:43;6.00;;;4.17;;
16922;SDS011;8578;50.938;13.556;2022-07-23T10:48:14;5.33;;;4.63;;
16922;SDS011;8578;50.938;13.556;2022-07-23T10:50:43;7.00;;;4.87;;
16922;SDS011;8578;50.938;13.556;2022-07-23T10:53:15;6.30;;;4.60;;
16922;SDS011;8578;50.938;13.556;2022-07-23T10:55:52;6.10;;;4.50;;
16922;SDS011;8578;50.938;13.556;2022-07-23T10:58:21;10.07;;;5.20;;
16922;SDS011;8578;50.938;13.556;2022-07-23T11:00:48;7.83;;;4.67;;
16922;SDS011;8578;50.938;13.556;2022-07-23T11:03:33;5.97;;;4.90;;
16922;SDS011;8578;50.938;13.556;2022-07-23T11:06:04;9.00;;;4.43;;
16922;SDS011;8578;50.938;13.556;2022-07-23T11:08:31;7.03;;;5.00;;
16922;SDS011;8578;50.938;13.556;2022-07-23T11:11:09;9.23;;;4.50;;
16922;SDS011;8578;50.938;13.556;2022-07-23T11:13:37;6.70;;;5.00;;
16922;SDS011;8578;50.938;13.556;2022-07-23T11:16:12;4.90;;;4.40;;
16922;SDS011;8578;50.938;13.556;2022-07-23T11:18:54;5.87;;;4.73;;
16922;SDS011;8578;50.938;13.556;2022-07-23T11:24:08;5.40;;;4.47;;
16922;SDS011;8578;50.938;13.556;2022-07-23T11:26:46;6.93;;;5.07;;
16922;SDS011;8578;50.938;13.556;2022-07-23T11:29:37;7.80;;;4.90;;
16922;SDS011;8578;50.938;13.556;2022-07-23T11:32:31;5.33;;;4.33;;
16922;SDS011;8578;50.938;13.556;2022-07-23T11:35:02;7.53;;;4.70;;
16922;SDS011;8578;50.938;13.556;2022-07-23T11:37:34;8.80;;;4.70;;
16922;SDS011;8578;50.938;13.556;2022-07-23T11:40:03;5.30;;;4.80;;
16922;SDS011;8578;50.938;13.556;2022-07-23T11:42:32;6.77;;;5.27;;
16922;SDS011;8578;50.938;13.556;2022-07-23T11:44:59;6.97;;;4.87;;
16922;SDS011;8578;50.938;13.556;2022-07-23T11:47:26;8.07;;;5.43;;
16922;SDS011;8578;50.938;13.556;2022-07-23T11:49:54;6.70;;;5.00;;
16922;SDS011;8578;50.938;13.556;2022-07-23T11:52:23;9.43;;;4.83;;
16922;SDS011;8578;50.938;13.556;2022-07-23T11:54:51;9.50;;;4.77;;
16922;SDS011;8578;50.938;13.556;2022-07-23T11:57:21;5.83;;;4.40;;
16922;SDS011;8578;50.938;13.556;2022-07-23T11:59:51;4.97;;;3.80;;
16922;SDS011;8578;50.938;13.556;2022-07-23T12:02:20;7.37;;;4.17;;
16922;SDS011;8578;50.938;13.556;2022-07-23T12:04:48;6.03;;;3.97;;
16922;SDS011;8578;50.938;13.556;2022-07-23T12:07:27;5.47;;;4.53;;
16922;SDS011;8578;50.938;13.556;2022-07-23T12:09:56;5.27;;;4.20;;
16922;SDS011;8578;50.938;13.556;2022-07-23T12:12:23;8.13;;;4.60;;
16922;SDS011;8578;50.938;13.556;2022-07-23T12:14:51;5.53;;;4.30;;
16922;SDS011;8578;50.938;13.556;2022-07-23T12:17:19;7.67;;;4.40;;
16922;SDS011;8578;50.938;13.556;2022-07-23T12:19:47;6.87;;;4.80;;
16922;SDS011;8578;50.938;13.556;2022-07-23T12:22:15;6.70;;;4.10;;
16922;SDS011;8578;50.938;13.556;2022-07-23T12:24:57;4.87;;;4.37;;
16922;SDS011;8578;50.938;13.556;2022-07-23T12:27:24;8.37;;;5.00;;
16922;SDS011;8578;50.938;13.556;2022-07-23T12:29:52;6.47;;;4.47;;
16922;SDS011;8578;50.938;13.556;2022-07-23T12:32:20;9.43;;;5.23;;
16922;SDS011;8578;50.938;13.556;2022-07-23T12:34:48;8.40;;;5.50;;
16922;SDS011;8578;50.938;13.556;2022-07-23T12:37:28;10.43;;;5.20;;
16922;SDS011;8578;50.938;13.556;2022-07-23T12:39:57;7.77;;;4.90;;
16922;SDS011;8578;50.938;13.556;2022-07-23T12:42:25;9.50;;;5.53;;
16922;SDS011;8578;50.938;13.556;2022-07-23T12:45:06;7.73;;;4.80;;
16922;SDS011;8578;50.938;13.556;2022-07-23T12:47:52;7.03;;;5.40;;
16922;SDS011;8578;50.938;13.556;2022-07-23T12:50:31;6.67;;;5.50;;
16922;SDS011;8578;50.938;13.556;2022-07-23T12:53:05;6.03;;;5.30;;
16922;SDS011;8578;50.938;13.556;2022-07-23T12:55:42;7.63;;;5.07;;
16922;SDS011;8578;50.938;13.556;2022-07-23T12:58:39;7.53;;;5.83;;
16922;SDS011;8578;50.938;13.556;2022-07-23T13:01:09;6.27;;;5.30;;
16922;SDS011;8578;50.938;13.556;2022-07-23T13:03:38;10.33;;;5.70;;
16922;SDS011;8578;50.938;13.556;2022-07-23T13:06:07;6.13;;;5.53;;
16922;SDS011;8578;50.938;13.556;2022-07-23T13:08:35;6.50;;;5.80;;
16922;SDS011;8578;50.938;13.556;2022-07-23T13:11:05;7.90;;;5.70;;
16922;SDS011;8578;50.938;13.556;2022-07-23T13:13:33;11.97;;;6.60;;
16922;SDS011;8578;50.938;13.556;2022-07-23T13:16:01;7.40;;;6.10;;
16922;SDS011;8578;50.938;13.556;2022-07-23T13:18:36;7.27;;;6.10;;
16922;SDS011;8578;50.938;13.556;2022-07-23T13:21:05;8.27;;;6.20;;
16922;SDS011;8578;50.938;13.556;2022-07-23T13:23:32;10.93;;;6.33;;
16922;SDS011;8578;50.938;13.556;2022-07-23T13:25:59;7.33;;;6.03;;
16922;SDS011;8578;50.938;13.556;2022-07-23T13:28:29;8.00;;;6.37;;
16922;SDS011;8578;50.938;13.556;2022-07-23T13:30:57;10.67;;;7.20;;
16922;SDS011;8578;50.938;13.556;2022-07-23T13:33:24;11.97;;;5.70;;
16922;SDS011;8578;50.938;13.556;2022-07-23T13:35:53;8.73;;;6.77;;
16922;SDS011;8578;50.938;13.556;2022-07-23T13:38:21;8.73;;;7.10;;
16922;SDS011;8578;50.938;13.556;2022-07-23T13:40:50;10.10;;;6.90;;
16922;SDS011;8578;50.938;13.556;2022-07-23T13:43:19;13.93;;;7.57;;
16922;SDS011;8578;50.938;13.556;2022-07-23T13:45:50;10.00;;;5.90;;
16922;SDS011;8578;50.938;13.556;2022-07-23T13:48:18;7.77;;;5.80;;
16922;SDS011;8578;50.938;13.556;2022-07-23T13:50:46;9.50;;;6.20;;
16922;SDS011;8578;50.938;13.556;2022-07-23T13:53:14;8.53;;;6.23;;
16922;SDS011;8578;50.938;13.556;2022-07-23T13:55:43;6.63;;;5.97;;
16922;SDS011;8578;50.938;13.556;2022-07-23T13:58:14;8.20;;;6.10;;
16922;SDS011;8578;50.938;13.556;2022-07-23T14:00:43;7.80;;;6.13;;
16922;SDS011;8578;50.938;13.556;2022-07-23T14:03:20;7.97;;;6.53;;
16922;SDS011;8578;50.938;13.556;2022-07-23T14:05:50;9.23;;;6.70;;
16922;SDS011;8578;50.938;13.556;2022-07-23T14:08:21;9.77;;;6.63;;
16922;SDS011;8578;50.938;13.556;2022-07-23T14:10:49;7.63;;;6.20;;
16922;SDS011;8578;50.938;13.556;2022-07-23T14:13:16;6.27;;;5.60;;
16922;SDS011;8578;50.938;13.556;2022-07-23T14:15:47;16.23;;;6.60;;
16922;SDS011;8578;50.938;13.556;2022-07-23T14:18:16;7.30;;;5.73;;
16922;SDS011;8578;50.938;13.556;2022-07-23T14:20:45;12.43;;;6.37;;
16922;SDS011;8578;50.938;13.556;2022-07-23T14:23:12;9.27;;;6.17;;
16922;SDS011;8578;50.938;13.556;2022-07-23T14:25:40;7.63;;;6.23;;
16922;SDS011;8578;50.938;13.556;2022-07-23T14:28:08;7.20;;;6.43;;
16922;SDS011;8578;50.938;13.556;2022-07-23T14:30:38;8.03;;;5.70;;
16922;SDS011;8578;50.938;13.556;2022-07-23T14:33:07;7.23;;;6.40;;
16922;SDS011;8578;50.938;13.556;2022-07-23T14:35:35;8.63;;;6.07;;
16922;SDS011;8578;50.938;13.556;2022-07-23T14:38:04;9.63;;;6.03;;
16922;SDS011;8578;50.938;13.556;2022-07-23T14:40:31;7.77;;;5.80;;
16922;SDS011;8578;50.938;13.556;2022-07-23T14:42:59;7.50;;;6.13;;
16922;SDS011;8578;50.938;13.556;2022-07-23T14:45:26;8.93;;;5.57;;
16922;SDS011;8578;50.938;13.556;2022-07-23T14:47:55;8.50;;;5.83;;
16922;SDS011;8578;50.938;13.556;2022-07-23T14:50:23;11.87;;;5.40;;
16922;SDS011;8578;50.938;13.556;2022-07-23T14:52:50;6.67;;;5.70;;
16922;SDS011;8578;50.938;13.556;2022-07-23T14:55:19;8.87;;;5.70;;
16922;SDS011;8578;50.938;13.556;2022-07-23T14:57:47;7.23;;;5.43;;
16922;SDS011;8578;50.938;13.556;2022-07-23T15:00:14;9.93;;;5.70;;
16922;SDS011;8578;50.938;13.556;2022-07-23T15:02:42;5.90;;;5.30;;
16922;SDS011;8578;50.938;13.556;2022-07-23T15:05:18;7.77;;;6.17;;
16922;SDS011;8578;50.938;13.556;2022-07-23T15:07:46;6.03;;;5.30;;
16922;SDS011;8578;50.938;13.556;2022-07-23T15:10:14;9.60;;;5.67;;
16922;SDS011;8578;50.938;13.556;2022-07-23T15:12:48;7.67;;;6.30;;
16922;SDS011;8578;50.938;13.556;2022-07-23T15:15:16;9.77;;;6.10;;